createdAt,value
2018-12-12T00:00:16.878Z,3.20
2018-12-12T00:02:44.333Z,3.30
2018-12-12T00:05:11.817Z,3.30
2018-12-12T00:07:39.289Z,3.40
2018-12-12T00:10:08.736Z,3.30
2018-12-12T00:12:36.428Z,3.30
2018-12-12T00:15:04.845Z,3.30
2018-12-12T00:17:32.331Z,3.40
2018-12-12T00:19:59.785Z,3.40
2018-12-12T00:22:27.242Z,3.40
2018-12-12T00:24:54.703Z,3.40
2018-12-12T00:27:22.193Z,3.40
2018-12-12T00:29:49.635Z,3.40
2018-12-12T00:32:17.099Z,3.30
2018-12-12T00:34:44.568Z,3.40
2018-12-12T00:37:12.043Z,3.40
2018-12-12T00:39:39.506Z,3.40
2018-12-12T00:42:06.988Z,3.40
2018-12-12T00:44:34.475Z,3.40
2018-12-12T00:47:02.069Z,3.50
2018-12-12T00:49:29.548Z,3.50
2018-12-12T00:51:57.344Z,3.60
2018-12-12T00:54:24.802Z,3.50
2018-12-12T00:56:52.289Z,3.50
2018-12-12T00:59:19.746Z,3.50
2018-12-12T01:01:47.192Z,3.50
2018-12-12T01:04:14.653Z,3.40
2018-12-12T01:06:42.101Z,3.50
2018-12-12T01:09:09.903Z,3.40
2018-12-12T01:11:43.229Z,3.50
2018-12-12T01:14:10.676Z,3.40
2018-12-12T01:16:38.138Z,3.50
2018-12-12T01:19:05.589Z,3.40
2018-12-12T01:21:33.042Z,3.40
2018-12-12T01:24:00.501Z,3.40
2018-12-12T01:26:27.974Z,3.40
2018-12-12T01:28:55.423Z,3.40
2018-12-12T01:31:22.890Z,3.40
2018-12-12T01:33:50.339Z,3.50
2018-12-12T01:36:17.793Z,3.50
2018-12-12T01:38:45.256Z,3.40
2018-12-12T01:41:12.706Z,3.40
2018-12-12T01:43:40.175Z,3.50
2018-12-12T01:46:07.696Z,3.40
2018-12-12T01:48:35.157Z,3.40
2018-12-12T01:51:02.645Z,3.40
2018-12-12T01:53:30.101Z,3.50
2018-12-12T01:55:58.412Z,3.60
2018-12-12T01:58:25.871Z,3.50
2018-12-12T02:00:53.322Z,3.50
2018-12-12T02:03:20.784Z,3.50
2018-12-12T02:05:48.319Z,3.60
2018-12-12T02:08:15.842Z,3.50
2018-12-12T02:10:43.307Z,3.50
2018-12-12T02:13:22.631Z,3.50
2018-12-12T02:15:50.072Z,3.50
2018-12-12T02:18:17.520Z,3.60
2018-12-12T02:20:45.022Z,3.50
2018-12-12T02:23:12.459Z,3.60
2018-12-12T02:25:39.915Z,3.60
2018-12-12T02:28:07.373Z,3.50
2018-12-12T02:30:34.849Z,3.50
2018-12-12T02:33:02.296Z,3.50
2018-12-12T02:35:29.749Z,3.60
2018-12-12T02:37:57.221Z,3.60
2018-12-12T02:40:24.690Z,3.60
2018-12-12T02:42:52.134Z,3.50
2018-12-12T02:45:19.595Z,3.50
2018-12-12T02:47:47.057Z,3.50
2018-12-12T02:50:14.599Z,3.60
2018-12-12T02:52:42.049Z,3.60
2018-12-12T02:55:09.586Z,3.50
2018-12-12T02:57:37.045Z,3.60
2018-12-12T03:00:07.933Z,3.60
2018-12-12T03:02:36.909Z,3.60
2018-12-12T03:05:04.862Z,3.60
2018-12-12T03:07:32.312Z,3.60
2018-12-12T03:09:59.951Z,3.60
2018-12-12T03:12:27.468Z,3.50
2018-12-12T03:14:55.871Z,3.40
2018-12-12T03:17:23.332Z,3.50
2018-12-12T03:19:50.856Z,3.60
2018-12-12T03:22:18.343Z,3.50
2018-12-12T03:24:45.797Z,3.50
2018-12-12T03:27:13.337Z,3.50
2018-12-12T03:29:40.797Z,3.40
2018-12-12T03:32:08.334Z,3.60
2018-12-12T03:34:35.886Z,3.50
2018-12-12T03:37:03.398Z,3.50
2018-12-12T03:39:31.192Z,3.60
2018-12-12T03:41:58.694Z,3.60
2018-12-12T03:44:26.149Z,3.60
2018-12-12T03:46:53.707Z,3.50
2018-12-12T03:49:21.152Z,3.40
2018-12-12T03:51:48.661Z,3.40
2018-12-12T03:54:16.103Z,3.40
2018-12-12T03:56:43.575Z,3.40
2018-12-12T03:59:11.008Z,3.50
2018-12-12T04:01:38.467Z,3.50
2018-12-12T04:04:06.010Z,3.50
2018-12-12T04:06:33.475Z,3.50
2018-12-12T04:09:01.029Z,3.50
2018-12-12T04:11:28.496Z,3.50
2018-12-12T04:13:55.962Z,3.50
2018-12-12T04:16:23.658Z,3.60
2018-12-12T04:18:51.253Z,3.50
2018-12-12T04:21:18.706Z,3.50
2018-12-12T04:23:46.160Z,3.40
2018-12-12T04:26:13.614Z,3.30
2018-12-12T04:28:41.076Z,3.40
2018-12-12T04:31:08.531Z,3.40
2018-12-12T04:33:35.994Z,3.40
2018-12-12T04:36:03.508Z,3.40
2018-12-12T04:38:31.045Z,3.30
2018-12-12T04:40:58.500Z,3.40
2018-12-12T04:43:25.954Z,3.40
2018-12-12T04:45:53.402Z,3.40
2018-12-12T04:48:20.856Z,3.40
2018-12-12T04:50:48.312Z,3.40
2018-12-12T04:53:15.765Z,3.40
2018-12-12T04:55:43.228Z,3.40
2018-12-12T04:58:10.684Z,3.40
2018-12-12T05:00:38.134Z,3.30
2018-12-12T05:03:05.968Z,3.30
2018-12-12T05:05:33.428Z,3.30
2018-12-12T05:08:01.835Z,3.30
2018-12-12T05:10:29.376Z,3.30
2018-12-12T05:12:56.836Z,3.20
2018-12-12T05:15:24.427Z,3.20
2018-12-12T05:17:51.879Z,3.30
2018-12-12T05:20:19.332Z,3.30
2018-12-12T05:22:46.888Z,3.40
2018-12-12T05:25:14.346Z,3.40
2018-12-12T05:27:41.800Z,3.40
2018-12-12T05:30:09.341Z,3.10
2018-12-12T05:32:36.855Z,3.30
2018-12-12T05:35:04.536Z,3.40
2018-12-12T05:37:31.980Z,3.40
2018-12-12T05:39:59.450Z,3.20
2018-12-12T05:42:26.897Z,2.70
2018-12-12T05:44:54.352Z,2.60
2018-12-12T05:47:21.805Z,2.80
2018-12-12T05:49:49.262Z,2.90
2018-12-12T05:52:16.709Z,3.00
2018-12-12T05:54:44.168Z,3.20
2018-12-12T05:57:11.613Z,3.10
2018-12-12T05:59:39.087Z,3.30
2018-12-12T06:02:06.642Z,3.30
2018-12-12T06:04:34.105Z,3.30
2018-12-12T06:07:01.571Z,3.20
2018-12-12T06:09:29.105Z,3.20
2018-12-12T06:11:56.564Z,3.20
2018-12-12T06:14:24.094Z,3.30
2018-12-12T06:16:51.569Z,3.30
2018-12-12T06:19:19.049Z,3.20
2018-12-12T06:21:46.507Z,3.20
2018-12-12T06:24:14.982Z,3.20
2018-12-12T06:26:42.436Z,3.20
2018-12-12T06:29:09.897Z,3.30
2018-12-12T06:31:37.354Z,3.20
2018-12-12T06:34:04.821Z,3.30
2018-12-12T06:36:32.265Z,3.40
2018-12-12T06:38:59.722Z,3.30
2018-12-12T06:41:27.220Z,3.10
2018-12-12T06:43:54.673Z,3.20
2018-12-12T06:46:22.133Z,3.20
2018-12-12T06:48:49.602Z,3.10
2018-12-12T06:51:17.065Z,3.20
2018-12-12T06:53:44.526Z,3.20
2018-12-12T06:56:12.024Z,3.20
2018-12-12T06:58:39.486Z,3.30
2018-12-12T07:01:07.018Z,3.10
2018-12-12T07:03:34.465Z,3.20
2018-12-12T07:06:01.924Z,3.10
2018-12-12T07:08:29.390Z,3.00
2018-12-12T07:10:56.833Z,2.90
2018-12-12T07:13:24.283Z,3.10
2018-12-12T07:15:51.768Z,3.20
2018-12-12T07:18:19.220Z,3.20
2018-12-12T07:20:46.672Z,3.20
2018-12-12T07:23:14.160Z,3.20
2018-12-12T07:25:41.616Z,2.90
2018-12-12T07:28:09.076Z,3.00
2018-12-12T07:30:36.573Z,2.90
2018-12-12T07:33:04.041Z,3.10
2018-12-12T07:35:31.578Z,3.10
2018-12-12T07:37:59.085Z,3.00
2018-12-12T07:40:26.531Z,2.90
2018-12-12T07:42:53.985Z,3.00
2018-12-12T07:45:21.482Z,3.20
2018-12-12T07:47:48.932Z,3.30
2018-12-12T07:50:16.394Z,3.30
2018-12-12T07:52:43.852Z,3.30
2018-12-12T07:55:11.304Z,3.20
2018-12-12T07:57:38.770Z,3.20
2018-12-12T08:00:08.106Z,3.10
2018-12-12T08:02:35.576Z,3.10
2018-12-12T08:05:03.105Z,3.20
2018-12-12T08:07:30.589Z,3.30
2018-12-12T08:09:58.050Z,3.30
2018-12-12T08:12:25.523Z,3.40
2018-12-12T08:14:52.990Z,3.40
2018-12-12T08:17:20.446Z,3.50
2018-12-12T08:19:47.914Z,3.40
2018-12-12T08:22:15.368Z,3.40
2018-12-12T08:24:42.816Z,3.40
2018-12-12T08:27:10.268Z,3.40
2018-12-12T08:29:37.725Z,3.40
2018-12-12T08:32:05.324Z,3.40
2018-12-12T08:34:32.765Z,3.40
2018-12-12T08:37:00.220Z,3.50
2018-12-12T08:39:27.671Z,3.60
2018-12-12T08:41:56.060Z,3.60
2018-12-12T08:44:23.519Z,3.70
2018-12-12T08:46:50.987Z,3.60
2018-12-12T08:49:18.431Z,3.70
2018-12-12T08:51:45.900Z,3.70
2018-12-12T08:54:13.345Z,3.70
2018-12-12T08:56:40.827Z,3.70
2018-12-12T08:59:08.282Z,3.50
2018-12-12T09:01:36.088Z,3.50
2018-12-12T09:04:03.613Z,3.50
2018-12-12T09:06:31.155Z,3.40
2018-12-12T09:08:58.621Z,3.20
2018-12-12T09:11:26.069Z,3.30
2018-12-12T09:13:53.556Z,3.30
2018-12-12T09:16:21.046Z,3.50
2018-12-12T09:18:48.512Z,3.50
2018-12-12T09:21:15.973Z,3.60
2018-12-12T09:23:43.435Z,3.70
2018-12-12T09:26:10.892Z,3.80
2018-12-12T09:28:38.373Z,3.70
2018-12-12T09:31:05.825Z,3.50
2018-12-12T09:33:33.279Z,3.60
2018-12-12T09:36:00.736Z,3.60
2018-12-12T09:38:28.207Z,3.70
2018-12-12T09:40:55.692Z,3.70
2018-12-12T09:43:24.204Z,3.90
2018-12-12T09:45:51.729Z,3.90
2018-12-12T09:48:21.161Z,4.00
2018-12-12T09:50:48.742Z,3.90
2018-12-12T09:53:16.248Z,3.70
2018-12-12T09:55:43.758Z,3.80
2018-12-12T09:58:11.280Z,3.70
2018-12-12T10:00:38.750Z,3.80
2018-12-12T10:03:06.861Z,3.60
2018-12-12T10:05:34.466Z,3.80
2018-12-12T10:08:01.914Z,4.30
2018-12-12T10:10:29.388Z,4.50
2018-12-12T10:12:56.829Z,4.60
2018-12-12T10:15:24.290Z,4.60
2018-12-12T10:17:51.755Z,4.50
2018-12-12T10:20:19.219Z,4.60
2018-12-12T10:22:46.695Z,4.70
2018-12-12T10:25:14.199Z,4.80
2018-12-12T10:27:41.681Z,5.10
2018-12-12T10:30:09.174Z,5.10
2018-12-12T10:32:36.623Z,5.50
2018-12-12T10:35:04.561Z,5.50
2018-12-12T10:37:32.007Z,5.70
2018-12-12T10:39:59.458Z,5.80
2018-12-12T10:42:26.928Z,5.40
2018-12-12T10:44:54.385Z,5.80
2018-12-12T10:47:21.835Z,5.40
2018-12-12T10:49:49.297Z,5.00
2018-12-12T10:52:16.733Z,5.10
2018-12-12T10:54:44.192Z,5.10
2018-12-12T10:57:11.685Z,5.10
2018-12-12T10:59:39.234Z,5.10
2018-12-12T11:02:12.450Z,5.20
2018-12-12T11:04:39.907Z,5.50
2018-12-12T11:07:07.344Z,5.60
2018-12-12T11:09:34.924Z,5.50
2018-12-12T11:12:02.378Z,5.50
2018-12-12T11:14:29.820Z,5.50
2018-12-12T11:16:57.280Z,6.10
2018-12-12T11:19:24.760Z,5.90
2018-12-12T11:21:52.222Z,5.80
2018-12-12T11:24:19.669Z,5.40
2018-12-12T11:26:47.142Z,5.70
2018-12-12T11:29:14.589Z,5.20
2018-12-12T11:31:42.039Z,5.10
2018-12-12T11:34:09.482Z,5.50
2018-12-12T11:36:38.169Z,5.50
2018-12-12T11:39:06.510Z,5.40
2018-12-12T11:41:33.960Z,5.10
2018-12-12T11:44:01.437Z,5.20
2018-12-12T11:46:28.889Z,5.40
2018-12-12T11:48:56.342Z,5.40
2018-12-12T11:51:23.807Z,5.30
2018-12-12T11:53:51.252Z,5.30
2018-12-12T11:56:18.766Z,5.50
2018-12-12T11:58:46.220Z,6.00
2018-12-12T12:01:13.719Z,5.70
2018-12-12T12:03:41.171Z,5.80
2018-12-12T12:06:08.615Z,5.90
2018-12-12T12:08:36.064Z,5.60
2018-12-12T12:11:03.572Z,5.40
2018-12-12T12:13:31.022Z,5.50
2018-12-12T12:15:58.478Z,5.50
2018-12-12T12:18:25.932Z,5.50
2018-12-12T12:20:53.376Z,5.60
2018-12-12T12:23:20.846Z,5.30
2018-12-12T12:25:48.311Z,5.30
2018-12-12T12:28:15.778Z,5.30
2018-12-12T12:30:43.222Z,5.30
2018-12-12T12:33:10.687Z,5.30
2018-12-12T12:35:38.127Z,5.20
2018-12-12T12:38:05.660Z,5.20
2018-12-12T12:40:33.110Z,5.30
2018-12-12T12:43:00.570Z,5.30
2018-12-12T12:45:29.188Z,5.40
2018-12-12T12:47:56.874Z,5.40
2018-12-12T12:50:24.336Z,5.30
2018-12-12T12:52:51.796Z,5.40
2018-12-12T12:55:19.237Z,5.20
2018-12-12T12:57:46.681Z,5.20
2018-12-12T13:00:14.161Z,5.10
2018-12-12T13:02:41.649Z,5.10
2018-12-12T13:05:09.094Z,5.30
2018-12-12T13:07:36.548Z,5.50
2018-12-12T13:10:04.485Z,5.50
2018-12-12T13:12:31.925Z,5.40
2018-12-12T13:14:59.398Z,5.20
2018-12-12T13:17:26.848Z,5.30
2018-12-12T13:19:54.296Z,5.00
2018-12-12T13:22:21.792Z,5.00
2018-12-12T13:24:49.247Z,4.90
2018-12-12T13:27:16.719Z,5.00
2018-12-12T13:29:44.187Z,5.10
2018-12-12T13:32:11.633Z,5.10
2018-12-12T13:34:39.088Z,5.00
2018-12-12T13:37:06.538Z,4.90
2018-12-12T13:39:34.008Z,4.90
2018-12-12T13:42:01.449Z,5.00
2018-12-12T13:44:28.917Z,5.00
2018-12-12T13:46:56.482Z,5.10
2018-12-12T13:49:23.945Z,5.10
2018-12-12T13:51:51.403Z,5.00
2018-12-12T13:54:18.861Z,4.90
2018-12-12T13:56:46.340Z,4.90
2018-12-12T13:59:13.793Z,4.70
2018-12-12T14:01:41.285Z,4.80
2018-12-12T14:04:08.748Z,4.80
2018-12-12T14:06:36.204Z,4.70
2018-12-12T14:09:04.944Z,4.60
2018-12-12T14:11:32.406Z,4.50
2018-12-12T14:13:59.857Z,4.60
2018-12-12T14:16:27.313Z,4.60
2018-12-12T14:18:54.768Z,4.80
2018-12-12T14:21:22.224Z,4.60
2018-12-12T14:23:49.684Z,4.70
2018-12-12T14:26:17.169Z,4.60
2018-12-12T14:28:44.626Z,4.70
2018-12-12T14:31:12.083Z,4.80
2018-12-12T14:33:39.522Z,4.80
2018-12-12T14:36:06.969Z,4.60
2018-12-12T14:38:34.496Z,4.50
2018-12-12T14:41:01.940Z,4.70
2018-12-12T14:43:29.409Z,4.70
2018-12-12T14:45:56.854Z,4.70
2018-12-12T14:48:30.158Z,4.80
2018-12-12T14:50:53.794Z,4.80
2018-12-12T14:53:21.236Z,5.00
2018-12-12T14:55:48.712Z,4.90
2018-12-12T14:58:16.149Z,4.80
2018-12-12T15:00:43.602Z,4.70
2018-12-12T15:03:11.045Z,4.60
2018-12-12T15:05:38.512Z,4.70
2018-12-12T15:08:05.999Z,4.80
2018-12-12T15:10:33.440Z,4.90
2018-12-12T15:13:00.907Z,4.80
2018-12-12T15:15:28.347Z,4.70
2018-12-12T15:17:55.800Z,4.70
2018-12-12T15:20:23.244Z,4.50
2018-12-12T15:22:50.693Z,4.50
2018-12-12T15:25:18.155Z,4.50
2018-12-12T15:27:45.603Z,4.50
2018-12-12T15:30:13.097Z,4.50
2018-12-12T15:32:40.538Z,4.50
2018-12-12T15:35:08.038Z,4.50
2018-12-12T15:37:35.508Z,4.40
2018-12-12T15:40:04.738Z,4.40
2018-12-12T15:42:32.223Z,4.40
2018-12-12T15:44:59.655Z,4.50
2018-12-12T15:47:27.112Z,4.40
2018-12-12T15:49:55.532Z,4.40
2018-12-12T15:52:22.990Z,4.40
2018-12-12T15:54:50.433Z,4.40
2018-12-12T15:57:17.895Z,4.50
2018-12-12T15:59:45.328Z,4.40
2018-12-12T16:02:12.784Z,4.40
2018-12-12T16:04:40.232Z,4.30
2018-12-12T16:07:07.817Z,4.30
2018-12-12T16:09:35.272Z,4.20
2018-12-12T16:12:02.732Z,4.10
2018-12-12T16:14:30.186Z,4.20
2018-12-12T16:16:57.637Z,4.10
2018-12-12T16:19:25.084Z,4.10
2018-12-12T16:21:52.548Z,3.90
2018-12-12T16:24:20.009Z,3.90
2018-12-12T16:26:48.429Z,4.00
2018-12-12T16:29:15.884Z,3.90
2018-12-12T16:31:43.490Z,3.90
2018-12-12T16:34:10.942Z,3.90
2018-12-12T16:36:38.394Z,4.00
2018-12-12T16:39:07.025Z,3.80
2018-12-12T16:41:34.553Z,3.80
2018-12-12T16:44:02.230Z,3.60
2018-12-12T16:46:29.681Z,3.40
2018-12-12T16:48:57.182Z,3.30
2018-12-12T16:51:24.641Z,3.30
2018-12-12T16:53:52.158Z,3.40
2018-12-12T16:56:19.611Z,3.50
2018-12-12T16:58:47.105Z,3.20
2018-12-12T17:01:14.555Z,3.30
2018-12-12T17:03:41.992Z,3.30
2018-12-12T17:06:09.451Z,3.30
2018-12-12T17:08:36.889Z,3.30
2018-12-12T17:11:04.349Z,3.20
2018-12-12T17:13:31.853Z,3.20
2018-12-12T17:15:59.349Z,3.10
2018-12-12T17:18:26.797Z,3.10
2018-12-12T17:20:54.249Z,3.10
2018-12-12T17:23:21.697Z,3.10
2018-12-12T17:25:49.146Z,3.00
2018-12-12T17:28:16.593Z,3.10
2018-12-12T17:30:44.043Z,3.10
2018-12-12T17:33:11.500Z,3.10
2018-12-12T17:35:38.970Z,3.00
2018-12-12T17:38:06.465Z,3.00
2018-12-12T17:40:33.935Z,3.00
2018-12-12T17:43:01.460Z,3.00
2018-12-12T17:45:29.844Z,3.00
2018-12-12T17:47:57.345Z,3.00
2018-12-12T17:50:24.793Z,3.00
2018-12-12T17:52:52.245Z,2.90
2018-12-12T17:55:19.725Z,2.90
2018-12-12T17:57:47.185Z,2.90
2018-12-12T18:00:14.709Z,2.90
2018-12-12T18:02:42.161Z,3.00
2018-12-12T18:05:15.097Z,2.80
2018-12-12T18:07:39.105Z,2.80
2018-12-12T18:10:06.724Z,2.70
2018-12-12T18:12:34.204Z,2.80
2018-12-12T18:15:01.690Z,2.90
2018-12-12T18:17:29.131Z,3.00
2018-12-12T18:19:56.595Z,2.90
2018-12-12T18:22:24.078Z,2.90
2018-12-12T18:24:51.540Z,2.80
2018-12-12T18:27:18.994Z,2.70
2018-12-12T18:29:46.505Z,2.60
2018-12-12T18:32:13.997Z,2.70
2018-12-12T18:34:41.450Z,2.80
2018-12-12T18:37:08.897Z,2.90
2018-12-12T18:39:36.331Z,2.90
2018-12-12T18:42:03.804Z,2.60
2018-12-12T18:44:31.262Z,2.50
2018-12-12T18:46:58.701Z,2.30
2018-12-12T18:49:26.158Z,1.90
2018-12-12T18:51:53.637Z,1.80
2018-12-12T18:54:21.089Z,1.80
2018-12-12T18:56:48.579Z,1.60
2018-12-12T18:59:16.045Z,1.70
2018-12-12T19:01:43.497Z,1.50
2018-12-12T19:04:10.967Z,1.60
2018-12-12T19:06:38.418Z,1.70
2018-12-12T19:09:06.113Z,1.60
2018-12-12T19:11:33.584Z,1.40
2018-12-12T19:14:01.041Z,1.50
2018-12-12T19:16:28.533Z,1.50
2018-12-12T19:18:56.003Z,1.50
2018-12-12T19:21:23.616Z,1.50
2018-12-12T19:23:51.149Z,1.40
2018-12-12T19:26:18.605Z,1.60
2018-12-12T19:28:46.064Z,1.70
2018-12-12T19:31:13.541Z,1.90
2018-12-12T19:33:40.998Z,1.90
2018-12-12T19:36:08.456Z,2.00
2018-12-12T19:38:35.918Z,2.00
2018-12-12T19:41:03.397Z,2.10
2018-12-12T19:43:30.844Z,2.30
2018-12-12T19:45:58.310Z,2.40
2018-12-12T19:48:25.801Z,2.40
2018-12-12T19:50:53.500Z,2.20
2018-12-12T19:53:20.938Z,2.40
2018-12-12T19:55:48.430Z,2.60
2018-12-12T19:58:15.901Z,2.70
2018-12-12T20:00:43.357Z,2.50
2018-12-12T20:03:10.809Z,2.30
2018-12-12T20:05:41.450Z,2.50
2018-12-12T20:08:07.782Z,2.50
2018-12-12T20:10:35.273Z,2.50
2018-12-12T20:13:02.733Z,2.30
2018-12-12T20:15:36.015Z,2.10
2018-12-12T20:18:03.474Z,2.30
2018-12-12T20:20:30.963Z,2.50
2018-12-12T20:22:58.411Z,2.20
2018-12-12T20:25:25.884Z,2.40
2018-12-12T20:27:53.362Z,2.40
2018-12-12T20:30:20.827Z,2.50
2018-12-12T20:32:48.263Z,2.70
2018-12-12T20:35:15.713Z,2.70
2018-12-12T20:37:43.206Z,2.50
2018-12-12T20:40:10.747Z,2.60
2018-12-12T20:42:38.202Z,2.50
2018-12-12T20:45:06.313Z,2.30
2018-12-12T20:47:33.790Z,2.50
2018-12-12T20:50:01.265Z,2.30
2018-12-12T20:52:28.708Z,2.10
2018-12-12T20:54:56.209Z,2.00
2018-12-12T20:57:23.662Z,2.00
2018-12-12T20:59:51.122Z,2.20
2018-12-12T21:02:18.670Z,2.20
2018-12-12T21:04:46.119Z,2.20
2018-12-12T21:07:13.671Z,2.10
2018-12-12T21:09:41.133Z,2.20
2018-12-12T21:12:08.586Z,2.20
2018-12-12T21:14:36.047Z,2.10
2018-12-12T21:17:03.545Z,2.10
2018-12-12T21:19:31.008Z,2.10
2018-12-12T21:21:58.466Z,2.10
2018-12-12T21:24:25.981Z,2.00
2018-12-12T21:26:53.420Z,1.90
2018-12-12T21:29:20.884Z,1.80
2018-12-12T21:31:48.338Z,1.80
2018-12-12T21:34:15.795Z,1.80
2018-12-12T21:36:43.270Z,1.70
2018-12-12T21:39:10.727Z,1.80
2018-12-12T21:41:38.190Z,1.90
2018-12-12T21:44:05.641Z,1.90
2018-12-12T21:46:33.108Z,1.90
2018-12-12T21:49:00.561Z,2.00
2018-12-12T21:51:28.024Z,2.00
2018-12-12T21:53:55.567Z,1.90
2018-12-12T21:56:23.040Z,1.80
2018-12-12T21:58:50.529Z,1.60
2018-12-12T22:01:18.040Z,1.70
2018-12-12T22:03:45.721Z,1.60
2018-12-12T22:06:13.184Z,1.50
2018-12-12T22:08:40.631Z,1.60
2018-12-12T22:11:08.082Z,1.40
2018-12-12T22:13:35.539Z,1.20
2018-12-12T22:16:03.833Z,1.30
2018-12-12T22:18:31.290Z,1.40
2018-12-12T22:20:58.750Z,1.60
2018-12-12T22:23:26.200Z,1.40
2018-12-12T22:25:53.644Z,1.60
2018-12-12T22:28:21.200Z,1.20
2018-12-12T22:30:48.640Z,1.10
2018-12-12T22:33:16.110Z,1.10
2018-12-12T22:35:43.552Z,1.00
2018-12-12T22:38:11.025Z,0.90
2018-12-12T22:40:38.477Z,1.00
2018-12-12T22:43:05.926Z,1.00
2018-12-12T22:45:33.372Z,1.00
2018-12-12T22:48:00.978Z,1.00
2018-12-12T22:50:28.422Z,1.00
2018-12-12T22:52:55.865Z,0.90
2018-12-12T22:55:23.316Z,0.80
2018-12-12T22:57:50.769Z,0.70
2018-12-12T23:03:32.021Z,0.60
2018-12-12T23:05:59.480Z,0.40
2018-12-12T23:08:27.248Z,0.50
2018-12-12T23:10:54.747Z,0.50
2018-12-12T23:13:22.213Z,0.40
2018-12-12T23:15:49.666Z,0.50
2018-12-12T23:18:17.121Z,0.30
2018-12-12T23:20:44.572Z,0.10
2018-12-12T23:23:12.045Z,-0.20
2018-12-12T23:25:39.501Z,-0.20
2018-12-12T23:28:06.963Z,-0.40
2018-12-12T23:30:34.469Z,-0.20
2018-12-12T23:33:01.920Z,-0.50
2018-12-12T23:35:29.414Z,-0.30
2018-12-12T23:37:56.877Z,-0.50
2018-12-12T23:40:24.329Z,-0.60
2018-12-12T23:42:51.785Z,-0.90
2018-12-12T23:47:53.072Z,-0.70
2018-12-12T23:50:20.580Z,-0.60
2018-12-12T23:52:48.055Z,-0.40
2018-12-12T23:55:15.573Z,-0.40
2018-12-12T23:57:43.025Z,-0.30
